Airfield :
LOGIN :

Register | Disclaimer

   EN    FR    IT 

 










Legend :    VFR   Marginal VFR   IFR   Intensive IFR   Very Intensive IFR
Visi :
Ceiling :
>= 8 km
>= 3000ft
5 to 8 km
1000 to 3000 ft
1500m to 5 km
500 to 1000 ft
800 to 1500m
200 to 500 ft
< 800m
< 200 ft
Symbols :   Thunderstorms  Fog  Heavy snow  Heavy precipitations  Wind > 20 kt
SIGMETs :     Misc.  Thunderstorms  Icing  Turbulence  Mountain Waves  Volcanic Ashes







- Airport Elevation : 510 ft


LJCE - Cerklje

CURRENT METAR :
  • 230500Z VRB01KT 5000 BR FEW002 BKN220 10/10 Q1016 RMK WHT

EXPIRED METARs :
  • 230430Z 00000KT 0800 FG NSC 10/10 Q1016 RMK AMB
  • 230400Z VRB01KT 0300 FG NSC 09/09 Q1015 RMK RED
  • 230330Z AUTO /////KT 0150 R09/0450N FG VV002 09/09 Q1016
  • 230300Z AUTO 22001KT 8000 R09/1200N FG SCT003/// BKN097/// 10/09 Q1016
  • 230230Z AUTO /////KT 6000 BR NSC 09/09 Q1016

TAF AMD TAF LJCE
Valid from the 23 at 04:00 until the 23 at 12:00 UTC


230427Z 2304/2312 VRB02KT 9999 FEW030 BKN100
TEMPO 2304/2306 0500 FG BKN002
BECMG 2308/2310 09005KT
No reported NOTAMs for that airfield.



MET'MAP, your aeronautical weather chart ! - Copyright ORBIFLY December 2007 - Disclaimer

ORBIFLY MET'MAP TEAM :

Programming & Development : Alexandra Zaïnal
Concept & Development : Baudouin d'Aumeries
Co-Development & Prog : Marc-Olivier Méhu
Technical & hardware support : Manuel Goepfert

Contact : metmap@orbifly.com




SOURCES & CREDITS :

   NOAA